Time;durP1;ratioP1;P1;durP2;ratioP2;P2;SDS_P1;SDS_P2;PMS_P1;PMS_P2;Temp;Humidity;BMP_temperature;BMP_pressure;BME280_temperature;BME280_humidity;BME280_pressure;Samples;Min_cycle;Max_cycle;Signal;HPM_P1;HPM_P2
2022/10/18 00:00:24;;;;;;;12.80;6.75;;;;;;;;;;5024042;28;20401;-75
2022/10/18 00:02:50;;;;;;;6.93;5.20;;;;;;;;;;5025963;28;20041;-76
2022/10/18 00:05:17;;;;;;;8.73;4.97;;;;;;;;;;5027467;28;20041;-75
2022/10/18 00:07:43;;;;;;;10.35;5.60;;;;;;;;;;5026885;28;20306;-74
2022/10/18 00:10:09;;;;;;;9.95;5.18;;;;;;;;;;5027673;28;20027;-75
2022/10/18 00:12:36;;;;;;;10.82;5.35;;;;;;;;;;5025100;28;20036;-75
2022/10/18 00:15:04;;;;;;;8.43;5.03;;;;;;;;;;5024718;28;20040;-75
2022/10/18 00:17:30;;;;;;;12.48;5.35;;;;;;;;;;5021315;28;20041;-75
2022/10/18 00:19:56;;;;;;;10.65;5.30;;;;;;;;;;5023875;28;20048;-75
2022/10/18 00:22:24;;;;;;;12.10;5.38;;;;;;;;;;5024426;28;20025;-75
2022/10/18 00:24:50;;;;;;;8.63;5.13;;;;;;;;;;5020591;28;20132;-75
2022/10/18 00:27:16;;;;;;;6.63;5.45;;;;;;;;;;5025391;28;20095;-75
2022/10/18 00:29:42;;;;;;;10.90;5.25;;;;;;;;;;5024822;28;20747;-75
2022/10/18 00:32:10;;;;;;;6.32;4.50;;;;;;;;;;5025023;28;20029;-75
2022/10/18 00:34:38;;;;;;;8.35;5.00;;;;;;;;;;5040571;28;20025;-75
2022/10/18 00:37:04;;;;;;;12.38;5.05;;;;;;;;;;5025113;28;20033;-75
2022/10/18 00:39:30;;;;;;;11.38;6.10;;;;;;;;;;5025615;28;20025;-75
2022/10/18 00:41:56;;;;;;;7.68;5.60;;;;;;;;;;5028313;28;20527;-75
2022/10/18 00:44:25;;;;;;;8.55;5.32;;;;;;;;;;5021619;28;20029;-75
2022/10/18 00:46:52;;;;;;;10.18;6.18;;;;;;;;;;5024136;28;20029;-76
2022/10/18 00:49:20;;;;;;;9.02;5.63;;;;;;;;;;5026960;28;20379;-75
2022/10/18 00:51:49;;;;;;;8.05;6.05;;;;;;;;;;5026673;28;20652;-76
2022/10/18 00:54:16;;;;;;;10.27;5.18;;;;;;;;;;5039427;28;20639;-76
2022/10/18 00:56:43;;;;;;;7.50;5.13;;;;;;;;;;5025198;28;20490;-75
2022/10/18 00:59:10;;;;;;;9.15;5.40;;;;;;;;;;5045583;28;20032;-75
2022/10/18 01:01:36;;;;;;;7.25;5.03;;;;;;;;;;5029062;28;20053;-76
2022/10/18 01:04:03;;;;;;;7.45;4.85;;;;;;;;;;5037837;28;20028;-75
2022/10/18 01:06:29;;;;;;;6.50;4.32;;;;;;;;;;5022328;28;20083;-75
2022/10/18 01:09:04;;;;;;;10.07;4.80;;;;;;;;;;5042045;28;20033;-75
2022/10/18 01:11:48;;;;;;;6.15;4.10;;;;;;;;;;5031436;28;20029;-75
2022/10/18 01:14:34;;;;;;;7.10;4.30;;;;;;;;;;5026335;28;20026;-75
2022/10/18 01:17:02;;;;;;;7.03;4.38;;;;;;;;;;5028081;28;20018;-75
2022/10/18 01:19:31;;;;;;;16.45;5.93;;;;;;;;;;5028028;28;20038;-75
2022/10/18 01:22:01;;;;;;;8.43;4.63;;;;;;;;;;5030756;28;20087;-75
2022/10/18 01:24:38;;;;;;;6.38;4.05;;;;;;;;;;5022119;28;20030;-75
2022/10/18 01:27:23;;;;;;;6.47;4.20;;;;;;;;;;5029729;28;20037;-76
2022/10/18 01:29:58;;;;;;;5.97;3.85;;;;;;;;;;5025103;28;20032;-75
2022/10/18 01:32:29;;;;;;;6.38;4.18;;;;;;;;;;5029417;28;20104;-75
2022/10/18 01:35:02;;;;;;;8.07;4.07;;;;;;;;;;5023895;28;20049;-75
2022/10/18 01:37:29;;;;;;;5.95;3.80;;;;;;;;;;5028447;28;20032;-74
2022/10/18 01:39:56;;;;;;;6.13;4.55;;;;;;;;;;5029931;28;20025;-75
2022/10/18 01:42:23;;;;;;;7.43;4.55;;;;;;;;;;5025557;28;20028;-75
2022/10/18 01:44:51;;;;;;;10.60;5.25;;;;;;;;;;5029343;28;20521;-75
2022/10/18 01:47:17;;;;;;;7.07;4.60;;;;;;;;;;5027632;28;20025;-74
2022/10/18 01:49:44;;;;;;;5.90;3.83;;;;;;;;;;5026863;28;20030;-75
2022/10/18 01:52:13;;;;;;;9.63;4.97;;;;;;;;;;5022157;28;20026;-75
2022/10/18 01:54:42;;;;;;;11.10;4.10;;;;;;;;;;5028571;28;20025;-75
2022/10/18 01:57:17;;;;;;;6.28;3.97;;;;;;;;;;5028625;28;20167;-75
2022/10/18 01:59:43;;;;;;;6.80;4.57;;;;;;;;;;5025293;28;20040;-75
2022/10/18 02:02:17;;;;;;;7.70;3.97;;;;;;;;;;5023860;28;20033;-75
2022/10/18 02:04:52;;;;;;;7.43;4.38;;;;;;;;;;5037456;28;20510;-75
2022/10/18 02:07:27;;;;;;;7.78;4.85;;;;;;;;;;5027076;28;20033;-75
2022/10/18 02:10:01;;;;;;;7.35;4.68;;;;;;;;;;5043053;28;20124;-75
2022/10/18 02:12:29;;;;;;;7.17;4.47;;;;;;;;;;5024234;28;20812;-75
2022/10/18 02:14:56;;;;;;;7.35;4.25;;;;;;;;;;5025326;28;20025;-75
2022/10/18 02:17:23;;;;;;;6.35;4.03;;;;;;;;;;5025620;28;20048;-74
2022/10/18 02:19:52;;;;;;;11.20;4.15;;;;;;;;;;5028693;28;20033;-75
2022/10/18 02:22:19;;;;;;;9.02;5.15;;;;;;;;;;5028200;28;20029;-75
2022/10/18 02:24:48;;;;;;;11.48;4.38;;;;;;;;;;5042722;28;20115;-75
2022/10/18 02:27:14;;;;;;;7.95;4.50;;;;;;;;;;5028220;28;20055;-75
2022/10/18 02:29:41;;;;;;;9.45;4.82;;;;;;;;;;5028733;28;20021;-75
2022/10/18 02:32:31;;;;;;;7.30;4.78;;;;;;;;;;5025347;28;20025;-75
2022/10/18 02:35:05;;;;;;;9.02;4.63;;;;;;;;;;5022434;28;20026;-75
2022/10/18 02:37:34;;;;;;;8.57;4.90;;;;;;;;;;5022190;28;20183;-76
2022/10/18 02:40:00;;;;;;;7.50;4.53;;;;;;;;;;5023129;28;20390;-75
2022/10/18 02:42:33;;;;;;;7.43;4.70;;;;;;;;;;5024043;28;20022;-75
2022/10/18 02:44:59;;;;;;;7.70;4.85;;;;;;;;;;5024131;28;20127;-75
2022/10/18 02:47:25;;;;;;;9.35;4.50;;;;;;;;;;5026214;28;20033;-75
2022/10/18 02:49:51;;;;;;;7.03;5.05;;;;;;;;;;5022963;28;20045;-75
2022/10/18 02:52:17;;;;;;;8.85;5.32;;;;;;;;;;5041705;28;20031;-75
2022/10/18 02:54:43;;;;;;;6.22;3.88;;;;;;;;;;5041079;28;20022;-75
2022/10/18 02:57:09;;;;;;;5.50;3.60;;;;;;;;;;5028370;28;20038;-75
2022/10/18 02:59:35;;;;;;;7.00;3.70;;;;;;;;;;5029118;28;20068;-75
2022/10/18 03:02:01;;;;;;;6.20;4.13;;;;;;;;;;5042224;28;20052;-75
2022/10/18 03:04:28;;;;;;;6.50;4.20;;;;;;;;;;5021500;28;20052;-75
2022/10/18 03:06:54;;;;;;;9.32;4.47;;;;;;;;;;5025357;28;20033;-76
2022/10/18 03:09:20;;;;;;;9.55;4.47;;;;;;;;;;5021487;28;20030;-75
2022/10/18 03:11:46;;;;;;;10.43;3.92;;;;;;;;;;5029478;28;20465;-74
2022/10/18 03:14:12;;;;;;;6.40;4.53;;;;;;;;;;5024793;28;20116;-75
2022/10/18 03:16:38;;;;;;;7.53;4.20;;;;;;;;;;5020677;28;20024;-75
2022/10/18 03:19:04;;;;;;;6.00;4.03;;;;;;;;;;5021073;28;20720;-74
2022/10/18 03:21:30;;;;;;;8.00;4.07;;;;;;;;;;5025018;28;20053;-75
2022/10/18 03:23:58;;;;;;;5.03;3.83;;;;;;;;;;5026897;28;20040;-74
2022/10/18 03:26:24;;;;;;;4.70;3.47;;;;;;;;;;5025573;28;20056;-75
2022/10/18 03:28:50;;;;;;;6.07;3.47;;;;;;;;;;5025907;28;20048;-75
2022/10/18 03:31:16;;;;;;;5.25;3.72;;;;;;;;;;5021413;28;20033;-75
2022/10/18 03:33:43;;;;;;;5.72;3.95;;;;;;;;;;5041784;28;20032;-75
2022/10/18 03:36:09;;;;;;;5.10;3.58;;;;;;;;;;5024732;28;20060;-75
2022/10/18 03:38:35;;;;;;;5.30;3.95;;;;;;;;;;5023113;28;20033;-76
2022/10/18 03:41:01;;;;;;;5.43;3.97;;;;;;;;;;5042550;28;20124;-75
2022/10/18 03:43:27;;;;;;;7.20;3.65;;;;;;;;;;5026928;28;20033;-76
2022/10/18 03:45:53;;;;;;;4.38;3.50;;;;;;;;;;5024877;28;20030;-75
2022/10/18 03:48:20;;;;;;;8.95;4.22;;;;;;;;;;5020637;28;20454;-75
2022/10/18 03:50:46;;;;;;;6.10;4.93;;;;;;;;;;5025259;28;20104;-75
2022/10/18 03:53:12;;;;;;;9.57;4.57;;;;;;;;;;5027976;28;20045;-75
2022/10/18 03:55:38;;;;;;;6.43;4.30;;;;;;;;;;5026502;28;20086;-75
2022/10/18 03:58:05;;;;;;;6.03;4.05;;;;;;;;;;5026783;28;20504;-75
2022/10/18 04:00:31;;;;;;;10.70;4.97;;;;;;;;;;5023393;28;20063;-75
2022/10/18 04:02:58;;;;;;;6.65;4.43;;;;;;;;;;5024485;28;20111;-74
2022/10/18 04:05:26;;;;;;;6.85;4.45;;;;;;;;;;5038032;28;20033;-74
2022/10/18 04:07:52;;;;;;;8.25;4.45;;;;;;;;;;5037959;28;20060;-75
2022/10/18 04:10:18;;;;;;;6.00;3.83;;;;;;;;;;5025403;28;20514;-75
2022/10/18 04:12:44;;;;;;;6.40;3.97;;;;;;;;;;5023246;28;20032;-75
2022/10/18 04:15:10;;;;;;;6.40;4.47;;;;;;;;;;5040855;28;20022;-75
2022/10/18 04:17:37;;;;;;;9.25;4.75;;;;;;;;;;5035225;28;20034;-75
2022/10/18 04:20:03;;;;;;;6.85;3.90;;;;;;;;;;5021655;28;20108;-75
2022/10/18 04:22:29;;;;;;;6.38;4.07;;;;;;;;;;5017853;28;20034;-76
2022/10/18 04:24:55;;;;;;;9.00;5.30;;;;;;;;;;5029018;28;20179;-75
2022/10/18 04:27:22;;;;;;;7.50;4.15;;;;;;;;;;5020281;28;20041;-75
2022/10/18 04:29:48;;;;;;;10.88;4.20;;;;;;;;;;5036767;28;20039;-75
2022/10/18 04:32:14;;;;;;;11.63;4.15;;;;;;;;;;5026720;28;20030;-75
2022/10/18 04:34:40;;;;;;;8.07;4.07;;;;;;;;;;5030316;28;20128;-75
2022/10/18 04:37:06;;;;;;;7.18;4.07;;;;;;;;;;5034462;28;20033;-75
2022/10/18 04:39:32;;;;;;;6.65;3.92;;;;;;;;;;5029059;28;20539;-75
2022/10/18 04:41:58;;;;;;;8.18;4.20;;;;;;;;;;5030686;28;20603;-75
2022/10/18 04:44:24;;;;;;;8.68;4.85;;;;;;;;;;5032019;28;20842;-75
2022/10/18 04:46:50;;;;;;;8.77;4.32;;;;;;;;;;5025512;28;20038;-75
2022/10/18 04:49:17;;;;;;;7.35;4.85;;;;;;;;;;5028368;28;20017;-75
2022/10/18 04:51:43;;;;;;;8.10;4.38;;;;;;;;;;5028711;28;20029;-75
2022/10/18 04:54:09;;;;;;;12.50;4.32;;;;;;;;;;5032368;28;20094;-75
2022/10/18 04:56:35;;;;;;;6.82;4.97;;;;;;;;;;5030223;28;20215;-75
2022/10/18 04:59:01;;;;;;;8.55;4.57;;;;;;;;;;5032248;28;20069;-76
2022/10/18 05:01:27;;;;;;;11.20;4.93;;;;;;;;;;5046937;28;20116;-76
2022/10/18 05:03:53;;;;;;;7.85;4.90;;;;;;;;;;5030054;28;20026;-76
2022/10/18 05:06:20;;;;;;;9.57;5.97;;;;;;;;;;5025936;28;20025;-75
2022/10/18 05:08:46;;;;;;;6.88;4.38;;;;;;;;;;5029835;28;20498;-75
2022/10/18 05:11:12;;;;;;;8.00;4.15;;;;;;;;;;5046112;28;20434;-76
2022/10/18 05:13:38;;;;;;;6.43;4.20;;;;;;;;;;5031964;28;20021;-75
2022/10/18 05:16:05;;;;;;;7.85;4.70;;;;;;;;;;5027619;28;20025;-75
2022/10/18 05:18:31;;;;;;;7.45;4.68;;;;;;;;;;5030134;28;20033;-75
2022/10/18 05:20:57;;;;;;;7.00;4.80;;;;;;;;;;5026449;28;20167;-75
2022/10/18 05:23:23;;;;;;;7.25;4.00;;;;;;;;;;5029660;28;20036;-75
2022/10/18 05:25:50;;;;;;;9.02;5.28;;;;;;;;;;5032072;28;20049;-75
2022/10/18 05:28:16;;;;;;;9.75;4.97;;;;;;;;;;5030954;28;20038;-76
2022/10/18 05:30:42;;;;;;;6.47;5.13;;;;;;;;;;5027764;28;20494;-75
2022/10/18 05:33:09;;;;;;;6.50;4.22;;;;;;;;;;5028851;28;20033;-74
2022/10/18 05:35:35;;;;;;;7.10;4.40;;;;;;;;;;5030184;28;20029;-75
2022/10/18 05:38:05;;;;;;;6.03;3.88;;;;;;;;;;5045408;28;20048;-75
2022/10/18 05:40:31;;;;;;;7.53;4.30;;;;;;;;;;5025780;28;20461;-75
2022/10/18 05:42:58;;;;;;;4.55;3.85;;;;;;;;;;5028546;28;20057;-75
2022/10/18 05:45:24;;;;;;;9.55;4.00;;;;;;;;;;5026711;28;20032;-75
2022/10/18 05:47:50;;;;;;;7.82;4.43;;;;;;;;;;5040981;28;20132;-75
2022/10/18 05:50:16;;;;;;;7.63;4.20;;;;;;;;;;5032012;28;20103;-75
2022/10/18 05:52:42;;;;;;;6.38;4.05;;;;;;;;;;5027558;28;20030;-75
2022/10/18 05:55:08;;;;;;;8.68;4.15;;;;;;;;;;5028808;28;20041;-75
2022/10/18 05:57:35;;;;;;;6.47;3.50;;;;;;;;;;5029398;28;20025;-75
2022/10/18 06:00:01;;;;;;;7.93;3.83;;;;;;;;;;5030624;28;20628;-75
2022/10/18 06:02:27;;;;;;;8.38;4.72;;;;;;;;;;5024763;28;20049;-75
2022/10/18 06:04:53;;;;;;;6.05;3.88;;;;;;;;;;5029470;28;20079;-75
2022/10/18 06:07:19;;;;;;;5.43;3.75;;;;;;;;;;5042218;28;20749;-74
2022/10/18 06:09:45;;;;;;;6.65;3.88;;;;;;;;;;5027029;28;20035;-74
2022/10/18 06:12:11;;;;;;;8.38;3.53;;;;;;;;;;5027079;28;20033;-75
2022/10/18 06:14:37;;;;;;;7.85;3.85;;;;;;;;;;5024892;28;20072;-75
2022/10/18 06:17:04;;;;;;;9.57;4.15;;;;;;;;;;5040707;28;20667;-75
2022/10/18 06:19:30;;;;;;;7.78;3.33;;;;;;;;;;5026674;28;20262;-76
2022/10/18 06:21:56;;;;;;;7.15;3.55;;;;;;;;;;5028270;28;21242;-75
2022/10/18 06:24:22;;;;;;;7.22;4.00;;;;;;;;;;5028556;28;20048;-76
2022/10/18 06:26:48;;;;;;;10.20;3.75;;;;;;;;;;5029179;28;20083;-75
2022/10/18 06:29:14;;;;;;;6.30;3.55;;;;;;;;;;5026917;28;20474;-75
2022/10/18 06:31:41;;;;;;;11.93;4.25;;;;;;;;;;5026303;28;20030;-75
2022/10/18 06:34:07;;;;;;;9.88;6.55;;;;;;;;;;5030968;28;20029;-75
2022/10/18 06:36:33;;;;;;;9.70;6.28;;;;;;;;;;5028483;28;20034;-75
2022/10/18 06:38:59;;;;;;;7.85;5.05;;;;;;;;;;5029797;28;20092;-75
2022/10/18 06:41:26;;;;;;;11.73;4.97;;;;;;;;;;5027136;28;20107;-75
2022/10/18 06:43:55;;;;;;;6.70;4.75;;;;;;;;;;5029213;28;20030;-75
2022/10/18 06:46:21;;;;;;;9.52;5.95;;;;;;;;;;5021563;28;20036;-74
2022/10/18 06:48:47;;;;;;;6.88;4.25;;;;;;;;;;5031280;28;20029;-75
2022/10/18 06:51:14;;;;;;;8.25;4.22;;;;;;;;;;5028989;28;20017;-74
2022/10/18 06:53:40;;;;;;;9.77;4.38;;;;;;;;;;5044328;28;20049;-75
2022/10/18 06:56:15;;;;;;;8.45;3.72;;;;;;;;;;5026838;28;20052;-75
2022/10/18 06:58:41;;;;;;;7.85;3.97;;;;;;;;;;5044359;28;20507;-74
2022/10/18 07:01:12;;;;;;;6.15;3.67;;;;;;;;;;5027048;28;20039;-75
2022/10/18 07:03:38;;;;;;;11.50;4.68;;;;;;;;;;5037515;28;20026;-74
2022/10/18 07:06:06;;;;;;;9.82;4.05;;;;;;;;;;5026463;28;20061;-75
2022/10/18 07:08:33;;;;;;;6.15;4.20;;;;;;;;;;5028426;28;20150;-75
2022/10/18 07:10:59;;;;;;;8.43;3.70;;;;;;;;;;5042539;28;20534;-75
2022/10/18 07:13:27;;;;;;;8.40;3.40;;;;;;;;;;5028914;28;20021;-75
2022/10/18 07:16:08;;;;;;;7.85;3.55;;;;;;;;;;5028044;28;20025;-74
2022/10/18 07:18:34;;;;;;;6.45;4.50;;;;;;;;;;5023724;28;20072;-74
2022/10/18 07:21:05;;;;;;;8.05;4.07;;;;;;;;;;5042816;28;20029;-76
2022/10/18 07:23:32;;;;;;;8.50;4.65;;;;;;;;;;5022637;28;20029;-75
2022/10/18 07:25:58;;;;;;;7.93;3.90;;;;;;;;;;5030230;28;20096;-75
2022/10/18 07:28:24;;;;;;;8.30;4.38;;;;;;;;;;5028397;28;20112;-74
2022/10/18 07:30:50;;;;;;;7.25;4.15;;;;;;;;;;5016462;28;20084;-74
2022/10/18 07:33:16;;;;;;;5.95;3.58;;;;;;;;;;5042702;28;20033;-76
2022/10/18 07:35:42;;;;;;;10.13;4.55;;;;;;;;;;5029166;28;20040;-74
2022/10/18 07:38:08;;;;;;;10.50;3.90;;;;;;;;;;5027931;28;20055;-75
2022/10/18 07:40:35;;;;;;;10.45;3.85;;;;;;;;;;5027288;28;20026;-75
2022/10/18 07:43:01;;;;;;;6.32;3.67;;;;;;;;;;5027603;28;20030;-75
2022/10/18 07:45:27;;;;;;;6.35;3.42;;;;;;;;;;5026392;28;20033;-75
2022/10/18 07:47:56;;;;;;;7.90;4.10;;;;;;;;;;5027616;28;20061;-75
2022/10/18 07:50:23;;;;;;;6.93;4.32;;;;;;;;;;5025762;28;20030;-76
2022/10/18 07:52:49;;;;;;;6.75;3.53;;;;;;;;;;5027883;28;20025;-75
2022/10/18 07:55:15;;;;;;;6.38;3.97;;;;;;;;;;5025786;28;20516;-76
2022/10/18 07:57:41;;;;;;;5.32;3.85;;;;;;;;;;5025403;28;20139;-75
2022/10/18 08:00:08;;;;;;;6.22;3.63;;;;;;;;;;5028766;28;20029;-75
2022/10/18 08:02:34;;;;;;;5.60;3.90;;;;;;;;;;5023624;28;20026;-75
2022/10/18 08:05:00;;;;;;;9.27;3.95;;;;;;;;;;5027500;28;20033;-74
2022/10/18 08:07:26;;;;;;;10.68;4.10;;;;;;;;;;5029177;28;20037;-74
2022/10/18 08:09:52;;;;;;;7.90;3.67;;;;;;;;;;5032345;28;20029;-75
2022/10/18 08:12:18;;;;;;;8.63;4.50;;;;;;;;;;5033919;28;20021;-75
2022/10/18 08:14:45;;;;;;;5.63;3.50;;;;;;;;;;5028038;28;20047;-74
2022/10/18 08:17:12;;;;;;;8.50;4.05;;;;;;;;;;5035269;28;20084;-75
2022/10/18 08:19:38;;;;;;;8.70;4.13;;;;;;;;;;5031051;28;20478;-75
2022/10/18 08:22:04;;;;;;;10.95;4.63;;;;;;;;;;5033772;28;20025;-75
2022/10/18 08:24:30;;;;;;;10.07;4.57;;;;;;;;;;5032873;28;21281;-75
2022/10/18 08:26:56;;;;;;;11.93;4.50;;;;;;;;;;5041924;28;20072;-74
2022/10/18 08:29:23;;;;;;;7.03;4.40;;;;;;;;;;5030826;28;20056;-75
2022/10/18 08:31:49;;;;;;;9.18;4.65;;;;;;;;;;5035147;28;20143;-75
2022/10/18 08:34:15;;;;;;;7.60;4.97;;;;;;;;;;5032567;28;20049;-75
2022/10/18 08:36:41;;;;;;;8.65;4.07;;;;;;;;;;5028797;28;20091;-75
2022/10/18 08:39:08;;;;;;;11.05;4.70;;;;;;;;;;5033492;28;20026;-75
2022/10/18 08:41:37;;;;;;;10.05;5.50;;;;;;;;;;5018577;28;20167;-74
2022/10/18 08:44:12;;;;;;;10.95;4.57;;;;;;;;;;5044243;28;20112;-75
2022/10/18 08:46:41;;;;;;;10.27;4.68;;;;;;;;;;5029389;28;20036;-76
2022/10/18 08:49:11;;;;;;;14.00;5.15;;;;;;;;;;5032119;28;20037;-76
2022/10/18 08:51:42;;;;;;;8.15;4.90;;;;;;;;;;5030857;28;20028;-75
2022/10/18 08:54:34;;;;;;;11.48;5.10;;;;;;;;;;5031829;28;20022;-75
2022/10/18 08:57:02;;;;;;;9.20;5.07;;;;;;;;;;5028129;28;20049;-76
2022/10/18 08:59:32;;;;;;;7.15;4.15;;;;;;;;;;5029939;28;20517;-75
2022/10/18 09:02:05;;;;;;;7.95;4.28;;;;;;;;;;5027948;28;20611;-75
2022/10/18 09:04:40;;;;;;;9.32;4.50;;;;;;;;;;5030174;28;20222;-75
2022/10/18 09:07:06;;;;;;;;;;;;;;;;;;5031836;28;20048;-75
2022/10/18 09:09:32;;;;;;;;;;;;;;;;;;5041273;28;20266;-75
2022/10/18 09:12:07;;;;;;;10.77;5.00;;;;;;;;;;5042893;28;19915;-75
2022/10/18 09:14:35;;;;;;;10.63;4.40;;;;;;;;;;5033105;28;20724;-75
2022/10/18 09:17:20;;;;;;;8.18;4.72;;;;;;;;;;5045063;28;20037;-76
2022/10/18 09:20:05;;;;;;;8.40;3.87;;;;;;;;;;5028233;28;20040;-76
2022/10/18 09:22:50;;;;;;;8.35;3.80;;;;;;;;;;5026571;28;20030;-75
2022/10/18 09:25:29;;;;;;;15.68;4.57;;;;;;;;;;5032394;28;20045;-75
2022/10/18 09:27:56;;;;;;;13.75;4.28;;;;;;;;;;5027998;28;20037;-75
2022/10/18 09:30:23;;;;;;;9.88;4.05;;;;;;;;;;5028234;28;20148;-75
2022/10/18 09:32:49;;;;;;;9.40;4.68;;;;;;;;;;5029770;28;20455;-75
2022/10/18 09:35:15;;;;;;;8.95;3.70;;;;;;;;;;5029487;28;20454;-75
2022/10/18 09:37:41;;;;;;;9.80;2.97;;;;;;;;;;5027838;28;20025;-76
2022/10/18 09:40:25;;;;;;;7.05;3.10;;;;;;;;;;5030727;28;20060;-75
2022/10/18 09:43:10;;;;;;;13.85;4.03;;;;;;;;;;5025076;28;20037;-75
2022/10/18 09:45:39;;;;;;;10.23;3.47;;;;;;;;;;5025230;28;20072;-75
2022/10/18 09:48:24;;;;;;;11.43;3.33;;;;;;;;;;5031029;28;20033;-76
2022/10/18 09:50:52;;;;;;;9.40;3.13;;;;;;;;;;5029699;28;20599;-75
2022/10/18 09:53:21;;;;;;;7.25;2.72;;;;;;;;;;5029898;28;20107;-75
2022/10/18 09:56:06;;;;;;;7.20;2.80;;;;;;;;;;5041063;28;20061;-76
2022/10/18 09:58:45;;;;;;;29.77;4.60;;;;;;;;;;5046973;28;20737;-79
2022/10/18 10:01:17;;;;;;;8.63;3.08;;;;;;;;;;5030644;28;20585;-75
2022/10/18 10:03:43;;;;;;;7.35;3.50;;;;;;;;;;5026661;28;20482;-75
2022/10/18 10:06:15;;;;;;;11.20;3.85;;;;;;;;;;5027435;28;20029;-75
2022/10/18 10:08:42;;;;;;;8.18;2.70;;;;;;;;;;5026296;28;20140;-76
2022/10/18 10:11:27;;;;;;;11.27;3.00;;;;;;;;;;5031182;28;20017;-75
2022/10/18 10:13:57;;;;;;;7.95;2.58;;;;;;;;;;5046687;28;20104;-74
2022/10/18 10:16:24;;;;;;;10.98;2.88;;;;;;;;;;5028954;28;20017;-75
2022/10/18 10:18:54;;;;;;;4.40;2.80;;;;;;;;;;5028839;28;20033;-75
2022/10/18 10:21:21;;;;;;;6.60;2.65;;;;;;;;;;5023350;28;20380;-76
2022/10/18 10:23:57;;;;;;;6.82;2.45;;;;;;;;;;5029020;28;20036;-76
2022/10/18 10:26:29;;;;;;;4.88;2.58;;;;;;;;;;5029450;28;20371;-76
2022/10/18 10:28:55;;;;;;;5.95;2.50;;;;;;;;;;5024418;28;20143;-75
2022/10/18 10:31:24;;;;;;;5.18;2.40;;;;;;;;;;5022091;28;20044;-75
2022/10/18 10:34:01;;;;;;;12.82;4.80;;;;;;;;;;5043760;28;20408;-75
2022/10/18 10:36:28;;;;;;;6.45;2.25;;;;;;;;;;5028495;28;20026;-75
2022/10/18 10:39:10;;;;;;;4.97;2.40;;;;;;;;;;5020546;28;20025;-75
2022/10/18 10:41:37;;;;;;;8.77;2.60;;;;;;;;;;5026352;28;20029;-75
2022/10/18 10:44:04;;;;;;;7.35;3.17;;;;;;;;;;5042415;28;20060;-76
2022/10/18 10:46:35;;;;;;;7.78;3.05;;;;;;;;;;5028285;28;20421;-75
2022/10/18 10:49:02;;;;;;;5.82;3.17;;;;;;;;;;5029965;28;20103;-76
2022/10/18 10:51:28;;;;;;;5.43;2.80;;;;;;;;;;5028639;28;20021;-76
2022/10/18 10:53:59;;;;;;;11.57;3.65;;;;;;;;;;5029371;28;20030;-76
2022/10/18 10:56:26;;;;;;;8.25;2.60;;;;;;;;;;5028243;28;20482;-76
2022/10/18 10:58:53;;;;;;;6.57;2.40;;;;;;;;;;5029606;28;20033;-76
2022/10/18 11:01:21;;;;;;;5.20;2.33;;;;;;;;;;5027257;28;20029;-76
2022/10/18 11:03:48;;;;;;;11.48;2.85;;;;;;;;;;5028153;28;20037;-76
2022/10/18 11:06:43;;;;;;;7.05;2.42;;;;;;;;;;5024457;28;20539;-77
2022/10/18 11:09:25;;;;;;;11.38;3.05;;;;;;;;;;5015084;28;20045;-82
2022/10/18 11:11:56;;;;;;;10.13;3.03;;;;;;;;;;5045059;28;20653;-77
2022/10/18 11:14:25;;;;;;;8.45;2.95;;;;;;;;;;5026958;28;20029;-77
2022/10/18 11:16:58;;;;;;;6.47;2.47;;;;;;;;;;5027108;28;20077;-77
2022/10/18 11:19:44;;;;;;;15.25;2.78;;;;;;;;;;5027212;28;20058;-77
2022/10/18 11:22:14;;;;;;;6.88;2.85;;;;;;;;;;5043303;28;20449;-77
2022/10/18 11:24:40;;;;;;;6.78;2.45;;;;;;;;;;5025739;28;20386;-75
2022/10/18 11:27:12;;;;;;;8.80;2.63;;;;;;;;;;5025943;28;20103;-75
2022/10/18 11:29:42;;;;;;;9.88;3.17;;;;;;;;;;5044722;28;20140;-76
2022/10/18 11:32:17;;;;;;;7.85;4.03;;;;;;;;;;5026312;28;20021;-75
2022/10/18 11:34:43;;;;;;;;;;;;;;;;;;5038407;28;20021;-75
2022/10/18 11:37:09;;;;;;;7.22;3.03;;;;;;;;;;5021922;28;21333;-75
2022/10/18 11:39:50;;;;;;;5.25;2.80;;;;;;;;;;5028374;28;20086;-75
2022/10/18 11:42:34;;;;;;;9.50;2.47;;;;;;;;;;5025254;28;20026;-75
2022/10/18 11:45:11;;;;;;;4.65;2.65;;;;;;;;;;5025583;28;20033;-75
2022/10/18 11:47:44;;;;;;;6.78;2.63;;;;;;;;;;5025724;28;20112;-75
2022/10/18 11:50:29;;;;;;;8.73;2.95;;;;;;;;;;5023192;28;20123;-75
2022/10/18 11:53:14;;;;;;;10.05;2.72;;;;;;;;;;5020849;28;20032;-76
2022/10/18 11:55:43;;;;;;;6.53;2.55;;;;;;;;;;5042558;28;20037;-75
2022/10/18 11:58:22;;;;;;;7.30;2.85;;;;;;;;;;5027362;28;20030;-76
2022/10/18 12:00:48;;;;;;;5.57;2.40;;;;;;;;;;5027210;28;20108;-77
2022/10/18 12:03:14;;;;;;;6.68;2.85;;;;;;;;;;5024779;28;20041;-76
2022/10/18 12:05:42;;;;;;;7.70;2.50;;;;;;;;;;5022261;28;20051;-75
2022/10/18 12:08:12;;;;;;;5.97;3.28;;;;;;;;;;5023979;28;20051;-76
2022/10/18 12:10:40;;;;;;;6.45;2.53;;;;;;;;;;5026290;28;20022;-76
2022/10/18 12:13:07;;;;;;;3.85;1.90;;;;;;;;;;5024896;28;20083;-76
2022/10/18 12:15:36;;;;;;;7.65;2.70;;;;;;;;;;5026127;28;20065;-75
2022/10/18 12:18:05;;;;;;;7.28;2.53;;;;;;;;;;5025369;28;20818;-75
2022/10/18 12:20:33;;;;;;;6.80;2.10;;;;;;;;;;5027165;28;20112;-76
2022/10/18 12:23:01;;;;;;;5.70;2.13;;;;;;;;;;5025099;28;21812;-76
2022/10/18 12:25:29;;;;;;;5.68;2.10;;;;;;;;;;5023981;28;20021;-76
2022/10/18 12:28:13;;;;;;;8.70;2.50;;;;;;;;;;5042417;28;20394;-77
2022/10/18 12:30:42;;;;;;;6.50;3.00;;;;;;;;;;5022297;28;20075;-77
2022/10/18 12:33:10;;;;;;;6.15;2.45;;;;;;;;;;5042127;28;20029;-77
2022/10/18 12:35:46;;;;;;;3.65;2.10;;;;;;;;;;5025263;28;20651;-77
2022/10/18 12:38:25;;;;;;;7.30;2.10;;;;;;;;;;5026493;28;20053;-77
2022/10/18 12:40:52;;;;;;;7.07;2.50;;;;;;;;;;5027735;28;20444;-76
2022/10/18 12:43:35;;;;;;;7.57;2.92;;;;;;;;;;5027361;28;20033;-76
2022/10/18 12:46:02;;;;;;;4.60;2.15;;;;;;;;;;5025193;28;20445;-76
2022/10/18 12:48:37;;;;;;;8.27;2.35;;;;;;;;;;5027585;28;20033;-77
2022/10/18 12:51:17;;;;;;;6.53;2.50;;;;;;;;;;5027306;28;20499;-74
2022/10/18 12:53:47;;;;;;;8.02;2.78;;;;;;;;;;5030112;28;20033;-75
2022/10/18 12:56:28;;;;;;;7.47;3.17;;;;;;;;;;5027812;28;20061;-76
2022/10/18 12:59:13;;;;;;;7.72;2.10;;;;;;;;;;5040420;28;20029;-76
2022/10/18 13:01:39;;;;;;;;;;;;;;;;;;5026960;28;20034;-76
2022/10/18 13:04:25;;;;;;;6.47;2.22;;;;;;;;;;5025108;28;19916;-76
2022/10/18 13:06:58;;;;;;;6.13;2.20;;;;;;;;;;5025709;28;20374;-76
2022/10/18 13:09:25;;;;;;;8.65;2.72;;;;;;;;;;5028028;28;20488;-75
2022/10/18 13:11:54;;;;;;;5.18;2.38;;;;;;;;;;5029629;28;20033;-76
2022/10/18 13:14:24;;;;;;;8.50;2.40;;;;;;;;;;5031107;28;20576;-76
2022/10/18 13:17:06;;;;;;;6.30;2.55;;;;;;;;;;5029862;28;20017;-76
2022/10/18 13:19:47;;;;;;;8.13;3.00;;;;;;;;;;5025960;28;20017;-77
2022/10/18 13:22:26;;;;;;;12.07;3.35;;;;;;;;;;5028191;28;20514;-76
2022/10/18 13:25:00;;;;;;;7.13;2.30;;;;;;;;;;5028430;28;20608;-76
2022/10/18 13:27:42;;;;;;;5.50;2.78;;;;;;;;;;5030244;28;20052;-84
2022/10/18 13:30:11;;;;;;;6.35;2.30;;;;;;;;;;5022794;28;20025;-75
2022/10/18 13:32:56;;;;;;;6.18;2.38;;;;;;;;;;5026081;28;20033;-76
2022/10/18 13:35:41;;;;;;;9.25;2.60;;;;;;;;;;5043232;28;20029;-76
2022/10/18 13:38:23;;;;;;;8.48;2.97;;;;;;;;;;5027977;28;20112;-77
2022/10/18 13:41:03;;;;;;;3.97;2.30;;;;;;;;;;5029935;28;20053;-76
2022/10/18 13:43:47;;;;;;;9.73;3.55;;;;;;;;;;5028742;28;20041;-76
2022/10/18 13:46:13;;;;;;;9.40;4.13;;;;;;;;;;5027469;28;20229;-77
2022/10/18 13:48:40;;;;;;;7.72;2.30;;;;;;;;;;5020278;28;20038;-76
2022/10/18 13:51:15;;;;;;;6.18;2.60;;;;;;;;;;5030267;28;20021;-76
2022/10/18 13:53:48;;;;;;;7.32;2.30;;;;;;;;;;5029876;28;20410;-76
2022/10/18 13:56:22;;;;;;;7.72;2.65;;;;;;;;;;5029405;28;20060;-76
2022/10/18 13:58:56;;;;;;;5.43;2.30;;;;;;;;;;5029583;28;20390;-74
2022/10/18 14:01:30;;;;;;;6.90;2.15;;;;;;;;;;5025871;28;20025;-75
2022/10/18 14:04:12;;;;;;;11.50;2.70;;;;;;;;;;5030015;28;20348;-75
2022/10/18 14:06:42;;;;;;;10.02;2.50;;;;;;;;;;5027901;28;20025;-75
2022/10/18 14:09:19;;;;;;;8.10;2.55;;;;;;;;;;5028639;28;20037;-76
2022/10/18 14:11:54;;;;;;;10.45;2.63;;;;;;;;;;5029831;28;20089;-74
2022/10/18 14:14:34;;;;;;;3.47;1.88;;;;;;;;;;5027628;28;20032;-75
2022/10/18 14:17:12;;;;;;;4.13;2.00;;;;;;;;;;5039389;28;20030;-76
2022/10/18 14:19:40;;;;;;;5.43;1.98;;;;;;;;;;5025190;28;20030;-74
2022/10/18 14:22:11;;;;;;;5.18;2.35;;;;;;;;;;5024153;28;20113;-74
2022/10/18 14:24:38;;;;;;;9.05;2.55;;;;;;;;;;5027495;28;20025;-75
2022/10/18 14:27:11;;;;;;;3.88;1.83;;;;;;;;;;5022425;28;20605;-74
2022/10/18 14:29:38;;;;;;;4.60;2.42;;;;;;;;;;5018396;28;20029;-74
2022/10/18 14:32:07;;;;;;;6.28;2.42;;;;;;;;;;5030523;28;20612;-74
2022/10/18 14:34:34;;;;;;;9.00;2.50;;;;;;;;;;5026003;28;20037;-74
2022/10/18 14:37:00;;;;;;;7.82;2.67;;;;;;;;;;5029226;28;20536;-75
2022/10/18 14:39:31;;;;;;;5.30;2.45;;;;;;;;;;5027830;28;20116;-74
2022/10/18 14:41:58;;;;;;;4.63;2.72;;;;;;;;;;5028133;28;20471;-74
2022/10/18 14:44:25;;;;;;;6.78;2.00;;;;;;;;;;5028178;28;20036;-75
2022/10/18 14:47:02;;;;;;;7.60;2.30;;;;;;;;;;5041075;28;20474;-75
2022/10/18 14:49:28;;;;;;;5.80;2.50;;;;;;;;;;5025869;28;20022;-76
2022/10/18 14:51:56;;;;;;;6.97;3.10;;;;;;;;;;5019730;28;20034;-75
2022/10/18 14:54:25;;;;;;;7.68;3.53;;;;;;;;;;5027446;28;20033;-75
2022/10/18 14:56:52;;;;;;;5.65;2.90;;;;;;;;;;5026043;28;20236;-74